createdAt,value
2023-01-29T00:05:53.995Z,29.33
2023-01-29T00:15:57.445Z,27.00
2023-01-29T00:26:00.200Z,24.70
2023-01-29T00:36:10.694Z,26.98
2023-01-29T00:46:12.253Z,26.40
2023-01-29T00:56:13.798Z,32.37
2023-01-29T01:06:15.297Z,27.67
2023-01-29T01:16:17.876Z,30.23
2023-01-29T01:26:19.495Z,27.97
2023-01-29T01:36:21.185Z,30.10
2023-01-29T01:46:23.951Z,24.50
2023-01-29T01:56:30.311Z,25.97
2023-01-29T02:06:33.634Z,22.80
2023-01-29T02:16:36.394Z,29.50
2023-01-29T02:26:53.726Z,26.47
2023-01-29T02:36:57.936Z,25.33
2023-01-29T02:47:08.546Z,24.38
2023-01-29T02:57:18.236Z,25.50
2023-01-29T03:07:27.545Z,22.60
2023-01-29T03:17:37.163Z,23.38
2023-01-29T03:27:47.802Z,23.00
2023-01-29T03:37:49.614Z,28.20
2023-01-29T03:47:51.081Z,24.13
2023-01-29T03:57:58.012Z,21.40
2023-01-29T04:08:09.693Z,26.07
2023-01-29T04:18:11.470Z,26.27
2023-01-29T04:28:44.066Z,22.52
2023-01-29T04:39:03.886Z,26.27
2023-01-29T04:49:36.978Z,24.83
2023-01-29T04:59:47.511Z,25.08
2023-01-29T05:09:50.670Z,27.13
2023-01-29T05:19:52.374Z,29.97
2023-01-29T05:29:53.879Z,26.35
2023-01-29T05:39:55.382Z,30.87
2023-01-29T05:49:56.914Z,33.37
2023-01-29T05:59:58.438Z,27.10
2023-01-29T06:10:00.004Z,25.10
2023-01-29T06:20:01.606Z,29.73
2023-01-29T06:30:07.253Z,30.43
2023-01-29T06:40:09.446Z,36.40
2023-01-29T06:50:11.704Z,30.70
2023-01-29T07:00:14.118Z,33.83
2023-01-29T07:10:16.159Z,33.10
2023-01-29T07:20:18.234Z,30.77
2023-01-29T07:30:19.939Z,29.13
2023-01-29T07:40:21.442Z,31.23
2023-01-29T07:50:24.479Z,30.42
2023-01-29T08:00:26.167Z,35.67
2023-01-29T08:10:28.251Z,28.63
2023-01-29T08:20:29.954Z,34.85
2023-01-29T08:30:33.557Z,28.93
2023-01-29T08:40:35.519Z,26.40
2023-01-29T08:50:38.078Z,25.48
2023-01-29T09:00:39.724Z,25.77
2023-01-29T09:10:41.296Z,24.03
2023-01-29T09:20:42.822Z,25.67
2023-01-29T09:30:47.704Z,25.43
2023-01-29T09:40:57.974Z,27.70
2023-01-29T09:51:03.352Z,28.30
2023-01-29T10:01:07.965Z,28.10
2023-01-29T10:11:28.279Z,28.53
2023-01-29T10:21:41.865Z,27.20
2023-01-29T10:31:46.163Z,26.73
2023-01-29T10:42:05.772Z,28.00
2023-01-29T10:52:52.308Z,28.20
2023-01-29T11:02:54.180Z,29.13
2023-01-29T11:12:56.702Z,30.70
2023-01-29T11:22:58.341Z,27.23
2023-01-29T11:33:18.131Z,30.70
2023-01-29T11:43:32.059Z,31.47
2023-01-29T11:53:40.839Z,28.50
2023-01-29T12:03:51.305Z,26.77
2023-01-29T12:13:58.527Z,29.75
2023-01-29T12:24:29.414Z,29.53
2023-01-29T12:34:49.452Z,27.17
2023-01-29T12:44:59.432Z,22.47
2023-01-29T12:55:07.267Z,25.13
2023-01-29T13:05:17.840Z,24.52
2023-01-29T13:15:28.655Z,21.03
2023-01-29T13:25:30.170Z,20.13
2023-01-29T13:35:31.723Z,19.87
2023-01-29T13:45:36.646Z,23.47
2023-01-29T13:55:39.676Z,21.38
2023-01-29T14:05:42.771Z,24.97
2023-01-29T14:16:04.551Z,20.63
2023-01-29T14:26:23.373Z,23.27
2023-01-29T14:36:26.017Z,20.10
2023-01-29T14:46:47.846Z,19.48
2023-01-29T14:56:57.986Z,21.10
2023-01-29T15:07:02.512Z,19.90
2023-01-29T15:17:18.404Z,22.97
2023-01-29T15:27:20.496Z,22.57
2023-01-29T15:37:33.510Z,21.88
2023-01-29T15:47:35.704Z,21.83
2023-01-29T15:57:41.327Z,20.97
2023-01-29T16:07:44.454Z,23.27
2023-01-29T16:17:46.086Z,31.47
2023-01-29T16:27:47.678Z,25.85
2023-01-29T16:37:50.933Z,25.03
2023-01-29T16:48:22.808Z,27.10
2023-01-29T16:58:26.578Z,25.33
2023-01-29T17:08:34.129Z,29.07
2023-01-29T17:18:35.703Z,25.38
2023-01-29T17:28:37.301Z,26.90
2023-01-29T17:38:39.295Z,28.53
2023-01-29T17:48:40.894Z,27.08
2023-01-29T17:58:42.507Z,30.40
2023-01-29T18:08:45.484Z,37.77
2023-01-29T18:18:47.277Z,33.13
2023-01-29T18:28:49.831Z,32.57
2023-01-29T18:38:51.356Z,35.85
2023-01-29T18:48:54.100Z,35.43
2023-01-29T18:58:55.859Z,42.87
2023-01-29T19:08:57.624Z,49.03
2023-01-29T19:18:59.173Z,47.47
2023-01-29T19:29:01.265Z,40.07
2023-01-29T19:39:03.280Z,40.93
2023-01-29T19:49:04.867Z,41.87
2023-01-29T19:59:06.394Z,40.95
2023-01-29T20:09:08.050Z,40.20
2023-01-29T20:19:14.011Z,37.43
2023-01-29T20:29:16.512Z,41.97
2023-01-29T20:39:18.051Z,41.37
2023-01-29T20:49:19.615Z,40.27
2023-01-29T20:59:21.168Z,38.63
2023-01-29T21:09:22.988Z,35.90
2023-01-29T21:19:24.500Z,34.97
2023-01-29T21:29:26.040Z,37.17
2023-01-29T21:39:27.586Z,38.47
2023-01-29T21:49:29.154Z,37.78
2023-01-29T21:59:33.861Z,33.37
2023-01-29T22:09:35.509Z,35.77
2023-01-29T22:19:37.046Z,41.88
2023-01-29T22:29:38.582Z,39.50
2023-01-29T22:39:40.104Z,43.53
2023-01-29T22:49:41.605Z,45.17
2023-01-29T22:59:43.171Z,48.17
2023-01-29T23:09:44.691Z,44.97
2023-01-29T23:19:46.202Z,41.50
2023-01-29T23:29:48.640Z,32.83
2023-01-29T23:39:50.198Z,31.93
2023-01-29T23:49:51.746Z,27.75
2023-01-29T23:59:53.284Z,25.93
